sensor_id;sensor_type;location;lat;lon;timestamp;temperature;humidity
30300;DHT22;17110;52.602;12.998;2023-05-07T00:01:49;9.00;99.90
30300;DHT22;17110;52.602;12.998;2023-05-07T00:04:15;9.00;99.90
30300;DHT22;17110;52.602;12.998;2023-05-07T00:06:42;9.00;99.90
30300;DHT22;17110;52.602;12.998;2023-05-07T00:09:08;9.00;99.90
30300;DHT22;17110;52.602;12.998;2023-05-07T00:11:33;9.00;99.90
30300;DHT22;17110;52.602;12.998;2023-05-07T00:13:59;9.00;99.90
30300;DHT22;17110;52.602;12.998;2023-05-07T00:16:25;8.90;99.90
30300;DHT22;17110;52.602;12.998;2023-05-07T00:18:52;9.00;99.90
30300;DHT22;17110;52.602;12.998;2023-05-07T00:21:18;9.00;99.90
30300;DHT22;17110;52.602;12.998;2023-05-07T00:23:45;9.00;99.90
30300;DHT22;17110;52.602;12.998;2023-05-07T00:26:10;9.10;99.90
30300;DHT22;17110;52.602;12.998;2023-05-07T00:28:36;9.00;99.90
30300;DHT22;17110;52.602;12.998;2023-05-07T00:31:02;9.00;99.90
30300;DHT22;17110;52.602;12.998;2023-05-07T00:33:27;9.00;99.90
30300;DHT22;17110;52.602;12.998;2023-05-07T00:35:53;9.00;99.90
30300;DHT22;17110;52.602;12.998;2023-05-07T00:38:19;9.10;99.90
30300;DHT22;17110;52.602;12.998;2023-05-07T00:40:46;9.10;99.90
30300;DHT22;17110;52.602;12.998;2023-05-07T00:43:11;9.00;99.90
30300;DHT22;17110;52.602;12.998;2023-05-07T00:45:37;9.00;99.90
30300;DHT22;17110;52.602;12.998;2023-05-07T00:48:03;9.00;99.90
30300;DHT22;17110;52.602;12.998;2023-05-07T00:50:30;9.10;99.90
30300;DHT22;17110;52.602;12.998;2023-05-07T00:52:56;9.10;99.90
30300;DHT22;17110;52.602;12.998;2023-05-07T00:55:23;9.00;99.90
30300;DHT22;17110;52.602;12.998;2023-05-07T00:57:50;9.10;99.90
30300;DHT22;17110;52.602;12.998;2023-05-07T01:00:17;9.00;99.90
30300;DHT22;17110;52.602;12.998;2023-05-07T01:02:43;9.00;99.90
30300;DHT22;17110;52.602;12.998;2023-05-07T01:05:10;9.00;99.90
30300;DHT22;17110;52.602;12.998;2023-05-07T01:07:37;9.00;99.90
30300;DHT22;17110;52.602;12.998;2023-05-07T01:10:04;9.10;99.90
30300;DHT22;17110;52.602;12.998;2023-05-07T01:12:31;9.00;99.90
30300;DHT22;17110;52.602;12.998;2023-05-07T01:14:58;9.00;99.90
30300;DHT22;17110;52.602;12.998;2023-05-07T01:17:24;9.00;99.90
30300;DHT22;17110;52.602;12.998;2023-05-07T01:19:50;9.00;99.90
30300;DHT22;17110;52.602;12.998;2023-05-07T01:22:26;9.10;99.90
30300;DHT22;17110;52.602;12.998;2023-05-07T01:24:53;9.10;99.90
30300;DHT22;17110;52.602;12.998;2023-05-07T01:27:19;9.20;99.90
30300;DHT22;17110;52.602;12.998;2023-05-07T01:29:48;9.20;99.90
30300;DHT22;17110;52.602;12.998;2023-05-07T01:32:16;9.10;99.90
30300;DHT22;17110;52.602;12.998;2023-05-07T01:34:43;9.00;99.90
30300;DHT22;17110;52.602;12.998;2023-05-07T01:37:10;9.00;99.90
30300;DHT22;17110;52.602;12.998;2023-05-07T01:39:39;9.00;99.90
30300;DHT22;17110;52.602;12.998;2023-05-07T01:42:05;9.10;99.90
30300;DHT22;17110;52.602;12.998;2023-05-07T01:44:31;9.00;99.90
30300;DHT22;17110;52.602;12.998;2023-05-07T01:46:57;9.00;99.90
30300;DHT22;17110;52.602;12.998;2023-05-07T01:49:22;9.00;99.90
30300;DHT22;17110;52.602;12.998;2023-05-07T01:51:48;9.00;99.90
30300;DHT22;17110;52.602;12.998;2023-05-07T01:54:14;9.10;99.90
30300;DHT22;17110;52.602;12.998;2023-05-07T01:56:41;9.00;99.90
30300;DHT22;17110;52.602;12.998;2023-05-07T01:59:07;9.00;99.90
30300;DHT22;17110;52.602;12.998;2023-05-07T02:01:33;9.00;99.90
30300;DHT22;17110;52.602;12.998;2023-05-07T02:03:58;9.10;99.90
30300;DHT22;17110;52.602;12.998;2023-05-07T02:06:26;9.10;99.90
30300;DHT22;17110;52.602;12.998;2023-05-07T02:08:56;9.00;99.90
30300;DHT22;17110;52.602;12.998;2023-05-07T02:11:22;9.10;99.90
30300;DHT22;17110;52.602;12.998;2023-05-07T02:13:49;9.00;99.90
30300;DHT22;17110;52.602;12.998;2023-05-07T02:16:15;9.00;99.90
30300;DHT22;17110;52.602;12.998;2023-05-07T02:18:41;9.00;99.90
30300;DHT22;17110;52.602;12.998;2023-05-07T02:21:06;9.00;99.90
30300;DHT22;17110;52.602;12.998;2023-05-07T02:23:32;9.00;99.90
30300;DHT22;17110;52.602;12.998;2023-05-07T02:25:58;9.00;99.90
30300;DHT22;17110;52.602;12.998;2023-05-07T02:28:24;9.00;99.90
30300;DHT22;17110;52.602;12.998;2023-05-07T02:30:55;9.10;99.90
30300;DHT22;17110;52.602;12.998;2023-05-07T02:33:21;9.00;99.90
30300;DHT22;17110;52.602;12.998;2023-05-07T02:35:47;9.00;99.90
30300;DHT22;17110;52.602;12.998;2023-05-07T02:38:14;9.00;99.90
30300;DHT22;17110;52.602;12.998;2023-05-07T02:40:40;9.00;99.90
30300;DHT22;17110;52.602;12.998;2023-05-07T02:43:06;9.00;99.90
30300;DHT22;17110;52.602;12.998;2023-05-07T02:45:32;9.00;99.90
30300;DHT22;17110;52.602;12.998;2023-05-07T02:48:00;9.00;99.90
30300;DHT22;17110;52.602;12.998;2023-05-07T02:50:25;9.00;99.90
30300;DHT22;17110;52.602;12.998;2023-05-07T02:52:51;9.00;99.90
30300;DHT22;17110;52.602;12.998;2023-05-07T02:55:17;8.90;99.90
30300;DHT22;17110;52.602;12.998;2023-05-07T02:57:43;8.90;99.90
30300;DHT22;17110;52.602;12.998;2023-05-07T03:00:13;8.90;99.90
30300;DHT22;17110;52.602;12.998;2023-05-07T03:02:44;9.00;99.90
30300;DHT22;17110;52.602;12.998;2023-05-07T03:05:11;9.00;99.90
30300;DHT22;17110;52.602;12.998;2023-05-07T03:07:37;9.00;99.90
30300;DHT22;17110;52.602;12.998;2023-05-07T03:10:03;8.90;99.90
30300;DHT22;17110;52.602;12.998;2023-05-07T03:12:29;9.00;99.90
30300;DHT22;17110;52.602;12.998;2023-05-07T03:14:55;9.00;99.90
30300;DHT22;17110;52.602;12.998;2023-05-07T03:17:21;9.00;99.90
30300;DHT22;17110;52.602;12.998;2023-05-07T03:19:47;9.00;99.90
30300;DHT22;17110;52.602;12.998;2023-05-07T03:22:14;8.90;99.90
30300;DHT22;17110;52.602;12.998;2023-05-07T03:24:40;9.00;99.90
30300;DHT22;17110;52.602;12.998;2023-05-07T03:27:06;9.00;99.90
30300;DHT22;17110;52.602;12.998;2023-05-07T03:29:32;8.90;99.90
30300;DHT22;17110;52.602;12.998;2023-05-07T03:31:58;9.00;99.90
30300;DHT22;17110;52.602;12.998;2023-05-07T03:34:23;8.90;99.90
30300;DHT22;17110;52.602;12.998;2023-05-07T03:36:49;8.90;99.90
30300;DHT22;17110;52.602;12.998;2023-05-07T03:39:16;8.90;99.90
30300;DHT22;17110;52.602;12.998;2023-05-07T03:41:42;8.90;99.90
30300;DHT22;17110;52.602;12.998;2023-05-07T03:44:08;8.90;99.90
30300;DHT22;17110;52.602;12.998;2023-05-07T03:46:34;8.90;99.90
30300;DHT22;17110;52.602;12.998;2023-05-07T03:49:00;8.90;99.90
30300;DHT22;17110;52.602;12.998;2023-05-07T03:51:26;8.90;99.90
30300;DHT22;17110;52.602;12.998;2023-05-07T03:53:52;8.80;99.90
30300;DHT22;17110;52.602;12.998;2023-05-07T03:56:19;8.80;99.90
30300;DHT22;17110;52.602;12.998;2023-05-07T03:58:47;8.90;99.90
30300;DHT22;17110;52.602;12.998;2023-05-07T04:01:13;8.80;99.90
30300;DHT22;17110;52.602;12.998;2023-05-07T04:03:39;8.90;99.90
30300;DHT22;17110;52.602;12.998;2023-05-07T04:06:05;8.80;99.90
30300;DHT22;17110;52.602;12.998;2023-05-07T04:08:33;8.90;99.90
30300;DHT22;17110;52.602;12.998;2023-05-07T04:10:59;8.90;99.90
30300;DHT22;17110;52.602;12.998;2023-05-07T04:13:30;8.90;99.90
30300;DHT22;17110;52.602;12.998;2023-05-07T04:15:57;8.90;99.90
30300;DHT22;17110;52.602;12.998;2023-05-07T04:18:24;8.90;99.90
30300;DHT22;17110;52.602;12.998;2023-05-07T04:20:50;8.90;99.90
30300;DHT22;17110;52.602;12.998;2023-05-07T04:23:16;8.90;99.90
30300;DHT22;17110;52.602;12.998;2023-05-07T04:25:42;8.90;99.90
30300;DHT22;17110;52.602;12.998;2023-05-07T04:28:20;8.90;99.90
30300;DHT22;17110;52.602;12.998;2023-05-07T04:30:47;8.90;99.90
30300;DHT22;17110;52.602;12.998;2023-05-07T04:33:14;9.00;99.90
30300;DHT22;17110;52.602;12.998;2023-05-07T04:35:41;9.00;99.90
30300;DHT22;17110;52.602;12.998;2023-05-07T04:38:07;9.00;99.90
30300;DHT22;17110;52.602;12.998;2023-05-07T04:40:35;9.10;99.90
30300;DHT22;17110;52.602;12.998;2023-05-07T04:43:01;9.10;99.90
30300;DHT22;17110;52.602;12.998;2023-05-07T04:45:30;9.00;99.90
30300;DHT22;17110;52.602;12.998;2023-05-07T04:47:57;9.00;99.90
30300;DHT22;17110;52.602;12.998;2023-05-07T04:50:23;9.00;99.90
30300;DHT22;17110;52.602;12.998;2023-05-07T04:52:49;9.00;99.90
30300;DHT22;17110;52.602;12.998;2023-05-07T04:55:15;9.00;99.90
30300;DHT22;17110;52.602;12.998;2023-05-07T04:57:41;9.00;99.90
30300;DHT22;17110;52.602;12.998;2023-05-07T05:00:09;9.10;99.90
30300;DHT22;17110;52.602;12.998;2023-05-07T05:02:36;9.20;99.90
30300;DHT22;17110;52.602;12.998;2023-05-07T05:05:03;9.10;99.90
30300;DHT22;17110;52.602;12.998;2023-05-07T05:07:29;9.10;99.90
30300;DHT22;17110;52.602;12.998;2023-05-07T05:09:55;9.20;99.90
30300;DHT22;17110;52.602;12.998;2023-05-07T05:12:21;9.20;99.90
30300;DHT22;17110;52.602;12.998;2023-05-07T05:14:47;9.30;99.90
30300;DHT22;17110;52.602;12.998;2023-05-07T05:17:13;9.30;99.90
30300;DHT22;17110;52.602;12.998;2023-05-07T05:19:39;9.30;99.90
30300;DHT22;17110;52.602;12.998;2023-05-07T05:22:06;9.40;99.90
30300;DHT22;17110;52.602;12.998;2023-05-07T05:24:32;9.40;99.90
30300;DHT22;17110;52.602;12.998;2023-05-07T05:26:58;9.30;99.90
30300;DHT22;17110;52.602;12.998;2023-05-07T05:29:24;9.30;99.90
30300;DHT22;17110;52.602;12.998;2023-05-07T05:31:49;9.40;99.90
30300;DHT22;17110;52.602;12.998;2023-05-07T05:34:15;9.40;99.90
30300;DHT22;17110;52.602;12.998;2023-05-07T05:36:42;9.40;99.90
30300;DHT22;17110;52.602;12.998;2023-05-07T05:39:09;9.40;99.90
30300;DHT22;17110;52.602;12.998;2023-05-07T05:41:35;9.40;99.90
30300;DHT22;17110;52.602;12.998;2023-05-07T05:44:02;9.40;99.90
30300;DHT22;17110;52.602;12.998;2023-05-07T05:46:28;9.50;99.90
30300;DHT22;17110;52.602;12.998;2023-05-07T05:48:56;9.50;99.90
30300;DHT22;17110;52.602;12.998;2023-05-07T05:51:22;9.60;99.90
30300;DHT22;17110;52.602;12.998;2023-05-07T05:53:48;9.70;99.90
30300;DHT22;17110;52.602;12.998;2023-05-07T05:56:15;9.80;99.90
30300;DHT22;17110;52.602;12.998;2023-05-07T05:58:41;9.90;99.90
30300;DHT22;17110;52.602;12.998;2023-05-07T06:01:08;10.20;99.90
30300;DHT22;17110;52.602;12.998;2023-05-07T06:03:35;10.80;99.90
30300;DHT22;17110;52.602;12.998;2023-05-07T06:06:05;11.60;99.90
30300;DHT22;17110;52.602;12.998;2023-05-07T06:08:31;12.80;99.90
30300;DHT22;17110;52.602;12.998;2023-05-07T06:10:58;13.60;99.90
30300;DHT22;17110;52.602;12.998;2023-05-07T06:13:26;14.60;99.90
30300;DHT22;17110;52.602;12.998;2023-05-07T06:15:51;15.40;99.90
30300;DHT22;17110;52.602;12.998;2023-05-07T06:18:17;16.30;99.90
30300;DHT22;17110;52.602;12.998;2023-05-07T06:20:43;15.80;99.90
30300;DHT22;17110;52.602;12.998;2023-05-07T06:23:16;14.60;99.90
30300;DHT22;17110;52.602;12.998;2023-05-07T06:25:42;15.20;99.90
30300;DHT22;17110;52.602;12.998;2023-05-07T06:28:07;15.80;99.90
30300;DHT22;17110;52.602;12.998;2023-05-07T06:30:36;16.30;99.90
30300;DHT22;17110;52.602;12.998;2023-05-07T06:33:02;16.20;99.90
30300;DHT22;17110;52.602;12.998;2023-05-07T06:35:28;15.30;99.90
30300;DHT22;17110;52.602;12.998;2023-05-07T06:37:53;15.30;99.90
30300;DHT22;17110;52.602;12.998;2023-05-07T06:40:23;15.30;99.90
30300;DHT22;17110;52.602;12.998;2023-05-07T06:42:49;14.10;99.90
30300;DHT22;17110;52.602;12.998;2023-05-07T06:45:36;13.50;99.90
30300;DHT22;17110;52.602;12.998;2023-05-07T06:48:02;13.50;99.90
30300;DHT22;17110;52.602;12.998;2023-05-07T06:50:31;13.00;99.90
30300;DHT22;17110;52.602;12.998;2023-05-07T06:52:57;12.50;99.90
30300;DHT22;17110;52.602;12.998;2023-05-07T06:55:23;13.60;99.90
30300;DHT22;17110;52.602;12.998;2023-05-07T06:57:49;14.00;99.90
30300;DHT22;17110;52.602;12.998;2023-05-07T07:00:17;14.70;99.90
30300;DHT22;17110;52.602;12.998;2023-05-07T07:02:49;14.80;99.90
30300;DHT22;17110;52.602;12.998;2023-05-07T07:05:18;15.00;99.90
30300;DHT22;17110;52.602;12.998;2023-05-07T07:07:44;15.20;99.90
30300;DHT22;17110;52.602;12.998;2023-05-07T07:10:10;16.30;99.90
30300;DHT22;17110;52.602;12.998;2023-05-07T07:12:35;16.40;99.90
30300;DHT22;17110;52.602;12.998;2023-05-07T07:15:02;16.20;99.90
30300;DHT22;17110;52.602;12.998;2023-05-07T07:17:28;15.40;99.90
30300;DHT22;17110;52.602;12.998;2023-05-07T07:19:56;15.20;99.90
30300;DHT22;17110;52.602;12.998;2023-05-07T07:22:22;15.20;99.90
30300;DHT22;17110;52.602;12.998;2023-05-07T07:24:48;15.00;99.90
30300;DHT22;17110;52.602;12.998;2023-05-07T07:27:16;15.00;99.90
30300;DHT22;17110;52.602;12.998;2023-05-07T07:29:42;15.00;99.90
30300;DHT22;17110;52.602;12.998;2023-05-07T07:32:08;15.00;99.90
30300;DHT22;17110;52.602;12.998;2023-05-07T07:34:34;14.90;99.90
30300;DHT22;17110;52.602;12.998;2023-05-07T07:37:02;14.70;99.90
30300;DHT22;17110;52.602;12.998;2023-05-07T07:39:28;14.20;99.90
30300;DHT22;17110;52.602;12.998;2023-05-07T07:41:55;13.50;99.90
30300;DHT22;17110;52.602;12.998;2023-05-07T07:44:21;13.20;99.90
30300;DHT22;17110;52.602;12.998;2023-05-07T07:46:52;13.00;99.90
30300;DHT22;17110;52.602;12.998;2023-05-07T07:49:19;13.30;99.90
30300;DHT22;17110;52.602;12.998;2023-05-07T07:51:45;13.20;99.90
30300;DHT22;17110;52.602;12.998;2023-05-07T07:54:14;13.60;99.90
30300;DHT22;17110;52.602;12.998;2023-05-07T07:56:40;14.20;99.90
30300;DHT22;17110;52.602;12.998;2023-05-07T07:59:07;14.60;99.90
30300;DHT22;17110;52.602;12.998;2023-05-07T08:01:36;14.70;99.90
30300;DHT22;17110;52.602;12.998;2023-05-07T08:04:02;14.70;99.90
30300;DHT22;17110;52.602;12.998;2023-05-07T08:06:29;15.10;99.90
30300;DHT22;17110;52.602;12.998;2023-05-07T08:08:55;14.50;99.90
30300;DHT22;17110;52.602;12.998;2023-05-07T08:11:23;14.00;99.90
30300;DHT22;17110;52.602;12.998;2023-05-07T08:13:49;13.80;99.90
30300;DHT22;17110;52.602;12.998;2023-05-07T08:16:15;14.00;99.90
30300;DHT22;17110;52.602;12.998;2023-05-07T08:18:41;14.40;99.90
30300;DHT22;17110;52.602;12.998;2023-05-07T08:21:07;14.60;99.90
30300;DHT22;17110;52.602;12.998;2023-05-07T08:23:33;14.60;99.90
30300;DHT22;17110;52.602;12.998;2023-05-07T08:25:59;14.50;99.90
30300;DHT22;17110;52.602;12.998;2023-05-07T08:28:26;14.70;99.90
30300;DHT22;17110;52.602;12.998;2023-05-07T08:30:52;14.60;99.90
30300;DHT22;17110;52.602;12.998;2023-05-07T08:33:18;14.70;99.90
30300;DHT22;17110;52.602;12.998;2023-05-07T08:35:44;15.00;99.90
30300;DHT22;17110;52.602;12.998;2023-05-07T08:38:12;15.10;99.90
30300;DHT22;17110;52.602;12.998;2023-05-07T08:40:39;14.80;99.90
30300;DHT22;17110;52.602;12.998;2023-05-07T08:43:11;14.30;99.90
30300;DHT22;17110;52.602;12.998;2023-05-07T08:45:40;14.10;99.90
30300;DHT22;17110;52.602;12.998;2023-05-07T08:48:09;14.40;99.90
30300;DHT22;17110;52.602;12.998;2023-05-07T08:50:39;14.60;99.90
30300;DHT22;17110;52.602;12.998;2023-05-07T08:53:05;14.10;99.90
30300;DHT22;17110;52.602;12.998;2023-05-07T08:55:31;14.00;99.90
30300;DHT22;17110;52.602;12.998;2023-05-07T08:57:57;14.10;99.90
30300;DHT22;17110;52.602;12.998;2023-05-07T09:00:23;14.50;99.90
30300;DHT22;17110;52.602;12.998;2023-05-07T09:02:52;14.30;99.90
30300;DHT22;17110;52.602;12.998;2023-05-07T09:05:18;14.10;99.90
30300;DHT22;17110;52.602;12.998;2023-05-07T09:07:45;14.70;99.90
30300;DHT22;17110;52.602;12.998;2023-05-07T09:10:12;15.40;99.90
30300;DHT22;17110;52.602;12.998;2023-05-07T09:12:40;16.00;99.90
30300;DHT22;17110;52.602;12.998;2023-05-07T09:15:08;16.10;99.90
30300;DHT22;17110;52.602;12.998;2023-05-07T09:17:34;16.40;99.90
30300;DHT22;17110;52.602;12.998;2023-05-07T09:20:04;15.60;99.90
30300;DHT22;17110;52.602;12.998;2023-05-07T09:22:31;15.30;99.90
30300;DHT22;17110;52.602;12.998;2023-05-07T09:25:01;15.20;99.90
30300;DHT22;17110;52.602;12.998;2023-05-07T09:27:27;15.60;99.90
30300;DHT22;17110;52.602;12.998;2023-05-07T09:29:55;15.80;99.90
30300;DHT22;17110;52.602;12.998;2023-05-07T09:32:21;16.00;99.90
30300;DHT22;17110;52.602;12.998;2023-05-07T09:34:46;15.80;99.90
30300;DHT22;17110;52.602;12.998;2023-05-07T09:37:14;15.80;99.90
30300;DHT22;17110;52.602;12.998;2023-05-07T09:39:41;16.20;99.90
30300;DHT22;17110;52.602;12.998;2023-05-07T09:42:08;16.40;99.90
30300;DHT22;17110;52.602;12.998;2023-05-07T09:44:35;16.80;99.90
30300;DHT22;17110;52.602;12.998;2023-05-07T09:47:04;16.90;99.90
30300;DHT22;17110;52.602;12.998;2023-05-07T09:49:38;17.10;99.90
30300;DHT22;17110;52.602;12.998;2023-05-07T09:52:08;17.40;99.90
30300;DHT22;17110;52.602;12.998;2023-05-07T09:54:40;17.50;99.90
30300;DHT22;17110;52.602;12.998;2023-05-07T09:57:07;17.30;99.90
30300;DHT22;17110;52.602;12.998;2023-05-07T09:59:34;17.60;99.90
30300;DHT22;17110;52.602;12.998;2023-05-07T10:02:05;18.00;99.90
30300;DHT22;17110;52.602;12.998;2023-05-07T10:04:36;18.20;99.90
30300;DHT22;17110;52.602;12.998;2023-05-07T10:07:03;17.90;99.90
30300;DHT22;17110;52.602;12.998;2023-05-07T10:09:30;17.40;99.90
30300;DHT22;17110;52.602;12.998;2023-05-07T10:11:58;17.10;99.90
30300;DHT22;17110;52.602;12.998;2023-05-07T10:14:25;17.80;99.90
30300;DHT22;17110;52.602;12.998;2023-05-07T10:16:53;17.80;99.90
30300;DHT22;17110;52.602;12.998;2023-05-07T10:19:20;17.70;99.90
30300;DHT22;17110;52.602;12.998;2023-05-07T10:21:54;17.00;99.90
30300;DHT22;17110;52.602;12.998;2023-05-07T10:24:25;16.80;99.90
30300;DHT22;17110;52.602;12.998;2023-05-07T10:26:52;17.10;99.90
30300;DHT22;17110;52.602;12.998;2023-05-07T10:29:37;17.30;99.90
30300;DHT22;17110;52.602;12.998;2023-05-07T10:32:25;17.00;99.90
30300;DHT22;17110;52.602;12.998;2023-05-07T10:34:59;16.10;99.90
30300;DHT22;17110;52.602;12.998;2023-05-07T10:37:26;15.80;99.90
30300;DHT22;17110;52.602;12.998;2023-05-07T10:39:55;15.90;99.90
30300;DHT22;17110;52.602;12.998;2023-05-07T10:42:21;15.80;99.90
30300;DHT22;17110;52.602;12.998;2023-05-07T10:44:52;15.30;99.90
30300;DHT22;17110;52.602;12.998;2023-05-07T10:47:24;15.30;99.90
30300;DHT22;17110;52.602;12.998;2023-05-07T10:50:22;15.70;99.90
30300;DHT22;17110;52.602;12.998;2023-05-07T10:56:25;15.90;99.90
30300;DHT22;17110;52.602;12.998;2023-05-07T10:59:35;16.40;99.90
30300;DHT22;17110;52.602;12.998;2023-05-07T11:05:44;17.00;99.90
30300;DHT22;17110;52.602;12.998;2023-05-07T11:08:23;16.80;99.90
30300;DHT22;17110;52.602;12.998;2023-05-07T11:10:56;16.90;99.90
30300;DHT22;17110;52.602;12.998;2023-05-07T11:13:45;16.50;99.90
30300;DHT22;17110;52.602;12.998;2023-05-07T11:16:21;16.10;99.90
30300;DHT22;17110;52.602;12.998;2023-05-07T11:18:53;16.60;99.90
30300;DHT22;17110;52.602;12.998;2023-05-07T11:21:35;17.20;99.90
30300;DHT22;17110;52.602;12.998;2023-05-07T11:24:13;17.20;99.90
30300;DHT22;17110;52.602;12.998;2023-05-07T11:26:59;17.30;99.90
30300;DHT22;17110;52.602;12.998;2023-05-07T11:29:26;17.10;99.90
30300;DHT22;17110;52.602;12.998;2023-05-07T11:31:58;17.30;99.90
30300;DHT22;17110;52.602;12.998;2023-05-07T11:34:28;17.60;99.90
30300;DHT22;17110;52.602;12.998;2023-05-07T11:36:58;17.30;99.90
30300;DHT22;17110;52.602;12.998;2023-05-07T11:39:37;16.60;99.90
30300;DHT22;17110;52.602;12.998;2023-05-07T11:42:03;16.50;99.90
30300;DHT22;17110;52.602;12.998;2023-05-07T11:44:43;16.60;99.90
30300;DHT22;17110;52.602;12.998;2023-05-07T11:47:10;16.70;99.90
30300;DHT22;17110;52.602;12.998;2023-05-07T11:49:36;16.80;99.90
30300;DHT22;17110;52.602;12.998;2023-05-07T11:52:03;16.90;99.90
30300;DHT22;17110;52.602;12.998;2023-05-07T11:54:35;16.60;99.90
30300;DHT22;17110;52.602;12.998;2023-05-07T11:57:00;16.40;99.90
30300;DHT22;17110;52.602;12.998;2023-05-07T11:59:26;16.30;99.90
30300;DHT22;17110;52.602;12.998;2023-05-07T12:01:52;16.30;99.90
30300;DHT22;17110;52.602;12.998;2023-05-07T12:04:20;16.60;99.90
30300;DHT22;17110;52.602;12.998;2023-05-07T12:06:46;17.30;99.90
30300;DHT22;17110;52.602;12.998;2023-05-07T12:09:13;17.80;99.90
30300;DHT22;17110;52.602;12.998;2023-05-07T12:11:38;17.90;99.90
30300;DHT22;17110;52.602;12.998;2023-05-07T12:14:04;17.80;99.90
30300;DHT22;17110;52.602;12.998;2023-05-07T12:16:36;18.20;99.90
30300;DHT22;17110;52.602;12.998;2023-05-07T12:19:02;18.10;99.90
30300;DHT22;17110;52.602;12.998;2023-05-07T12:21:28;18.00;99.50
30300;DHT22;17110;52.602;12.998;2023-05-07T12:23:54;17.70;99.90
30300;DHT22;17110;52.602;12.998;2023-05-07T12:26:21;17.90;99.90
30300;DHT22;17110;52.602;12.998;2023-05-07T12:28:48;18.30;99.90
30300;DHT22;17110;52.602;12.998;2023-05-07T12:31:14;18.20;99.90
30300;DHT22;17110;52.602;12.998;2023-05-07T12:33:40;17.90;99.90
30300;DHT22;17110;52.602;12.998;2023-05-07T12:36:06;17.70;99.90
30300;DHT22;17110;52.602;12.998;2023-05-07T12:38:37;17.40;99.90
30300;DHT22;17110;52.602;12.998;2023-05-07T12:41:03;16.60;99.90
30300;DHT22;17110;52.602;12.998;2023-05-07T12:43:30;16.50;99.90
30300;DHT22;17110;52.602;12.998;2023-05-07T12:45:57;16.70;99.90
30300;DHT22;17110;52.602;12.998;2023-05-07T12:48:24;17.10;99.90
30300;DHT22;17110;52.602;12.998;2023-05-07T12:50:50;17.40;99.90
30300;DHT22;17110;52.602;12.998;2023-05-07T12:53:17;17.70;99.90
30300;DHT22;17110;52.602;12.998;2023-05-07T12:55:47;18.00;99.90
30300;DHT22;17110;52.602;12.998;2023-05-07T12:58:19;18.10;99.90
30300;DHT22;17110;52.602;12.998;2023-05-07T13:00:49;17.60;99.90
30300;DHT22;17110;52.602;12.998;2023-05-07T13:03:23;17.30;99.90
30300;DHT22;17110;52.602;12.998;2023-05-07T13:05:49;16.90;99.90
30300;DHT22;17110;52.602;12.998;2023-05-07T13:08:24;16.80;99.90
30300;DHT22;17110;52.602;12.998;2023-05-07T13:10:53;16.80;99.90
30300;DHT22;17110;52.602;12.998;2023-05-07T13:13:18;16.90;99.90
30300;DHT22;17110;52.602;12.998;2023-05-07T13:15:51;17.20;99.90
30300;DHT22;17110;52.602;12.998;2023-05-07T13:18:17;17.60;99.90
30300;DHT22;17110;52.602;12.998;2023-05-07T13:20:43;17.60;99.90
30300;DHT22;17110;52.602;12.998;2023-05-07T13:23:09;17.50;99.90
30300;DHT22;17110;52.602;12.998;2023-05-07T13:25:34;17.10;99.90
30300;DHT22;17110;52.602;12.998;2023-05-07T13:28:03;16.90;99.90
30300;DHT22;17110;52.602;12.998;2023-05-07T13:30:31;16.60;99.90
30300;DHT22;17110;52.602;12.998;2023-05-07T13:33:08;16.60;99.90
30300;DHT22;17110;52.602;12.998;2023-05-07T13:35:37;16.90;99.90
30300;DHT22;17110;52.602;12.998;2023-05-07T13:38:03;16.90;99.90
30300;DHT22;17110;52.602;12.998;2023-05-07T13:40:29;16.90;99.90
30300;DHT22;17110;52.602;12.998;2023-05-07T13:42:57;17.10;99.90
30300;DHT22;17110;52.602;12.998;2023-05-07T13:45:22;17.40;99.90
30300;DHT22;17110;52.602;12.998;2023-05-07T13:47:48;17.30;99.90
30300;DHT22;17110;52.602;12.998;2023-05-07T13:50:15;17.50;99.90
30300;DHT22;17110;52.602;12.998;2023-05-07T13:52:44;17.70;99.90
30300;DHT22;17110;52.602;12.998;2023-05-07T13:55:10;17.70;99.90
30300;DHT22;17110;52.602;12.998;2023-05-07T13:57:36;17.70;99.90
30300;DHT22;17110;52.602;12.998;2023-05-07T14:00:02;17.20;99.50
30300;DHT22;17110;52.602;12.998;2023-05-07T14:02:29;16.90;99.90
30300;DHT22;17110;52.602;12.998;2023-05-07T14:04:55;16.50;99.90
30300;DHT22;17110;52.602;12.998;2023-05-07T14:07:22;16.50;99.90
30300;DHT22;17110;52.602;12.998;2023-05-07T14:09:48;16.50;99.90
30300;DHT22;17110;52.602;12.998;2023-05-07T14:12:13;16.70;99.90
30300;DHT22;17110;52.602;12.998;2023-05-07T14:14:39;16.70;99.90
30300;DHT22;17110;52.602;12.998;2023-05-07T14:17:04;16.80;99.90
30300;DHT22;17110;52.602;12.998;2023-05-07T14:19:30;16.70;99.90
30300;DHT22;17110;52.602;12.998;2023-05-07T14:21:56;16.80;99.90
30300;DHT22;17110;52.602;12.998;2023-05-07T14:24:24;17.10;99.90
30300;DHT22;17110;52.602;12.998;2023-05-07T14:26:50;17.50;99.90
30300;DHT22;17110;52.602;12.998;2023-05-07T14:29:15;18.00;99.90
30300;DHT22;17110;52.602;12.998;2023-05-07T14:31:41;18.10;98.90
30300;DHT22;17110;52.602;12.998;2023-05-07T14:34:06;18.00;99.70
30300;DHT22;17110;52.602;12.998;2023-05-07T14:36:32;17.80;98.20
30300;DHT22;17110;52.602;12.998;2023-05-07T14:38:58;17.60;99.60
30300;DHT22;17110;52.602;12.998;2023-05-07T14:41:25;17.30;99.10
30300;DHT22;17110;52.602;12.998;2023-05-07T14:43:51;17.10;99.70
30300;DHT22;17110;52.602;12.998;2023-05-07T14:46:17;16.80;99.90
30300;DHT22;17110;52.602;12.998;2023-05-07T14:48:49;16.80;99.90
30300;DHT22;17110;52.602;12.998;2023-05-07T14:51:15;16.80;99.90
30300;DHT22;17110;52.602;12.998;2023-05-07T14:53:49;16.80;99.90
30300;DHT22;17110;52.602;12.998;2023-05-07T14:56:37;16.70;99.90
30300;DHT22;17110;52.602;12.998;2023-05-07T14:59:15;16.60;99.90
30300;DHT22;17110;52.602;12.998;2023-05-07T15:02:24;16.70;99.90
30300;DHT22;17110;52.602;12.998;2023-05-07T15:04:49;16.70;99.90
30300;DHT22;17110;52.602;12.998;2023-05-07T15:07:20;16.60;99.90
30300;DHT22;17110;52.602;12.998;2023-05-07T15:09:54;16.60;99.90
30300;DHT22;17110;52.602;12.998;2023-05-07T15:12:24;16.50;99.90
30300;DHT22;17110;52.602;12.998;2023-05-07T15:18:01;16.30;99.90
30300;DHT22;17110;52.602;12.998;2023-05-07T15:21:00;16.40;99.90
30300;DHT22;17110;52.602;12.998;2023-05-07T15:23:19;16.40;99.90
30300;DHT22;17110;52.602;12.998;2023-05-07T15:26:26;16.30;99.90
30300;DHT22;17110;52.602;12.998;2023-05-07T15:29:16;16.30;99.90
30300;DHT22;17110;52.602;12.998;2023-05-07T15:35:12;16.10;99.90
30300;DHT22;17110;52.602;12.998;2023-05-07T15:37:40;15.90;99.90
30300;DHT22;17110;52.602;12.998;2023-05-07T15:40:07;15.90;99.90
30300;DHT22;17110;52.602;12.998;2023-05-07T15:42:33;15.90;99.90